sensor_id;sensor_type;location;lat;lon;timestamp;P1;durP1;ratioP1;P2;durP2;ratioP2
7985;SDS011;4038;42.612;23.066;2023-04-03T00:01:20;30.13;;;27.43;;
7985;SDS011;4038;42.612;23.066;2023-04-03T00:03:46;30.57;;;27.97;;
7985;SDS011;4038;42.612;23.066;2023-04-03T00:06:11;29.83;;;27.40;;
7985;SDS011;4038;42.612;23.066;2023-04-03T00:08:37;28.97;;;26.57;;
7985;SDS011;4038;42.612;23.066;2023-04-03T00:11:03;28.67;;;26.13;;
7985;SDS011;4038;42.612;23.066;2023-04-03T00:13:28;30.97;;;27.73;;
7985;SDS011;4038;42.612;23.066;2023-04-03T00:15:54;31.03;;;28.23;;
7985;SDS011;4038;42.612;23.066;2023-04-03T00:18:19;30.97;;;27.73;;
7985;SDS011;4038;42.612;23.066;2023-04-03T00:20:44;28.53;;;26.03;;
7985;SDS011;4038;42.612;23.066;2023-04-03T00:23:10;29.73;;;27.03;;
7985;SDS011;4038;42.612;23.066;2023-04-03T00:25:35;29.70;;;26.70;;
7985;SDS011;4038;42.612;23.066;2023-04-03T00:28:01;30.53;;;27.83;;
7985;SDS011;4038;42.612;23.066;2023-04-03T00:30:26;29.77;;;26.97;;
7985;SDS011;4038;42.612;23.066;2023-04-03T00:32:51;28.57;;;25.97;;
7985;SDS011;4038;42.612;23.066;2023-04-03T00:35:17;31.13;;;27.83;;
7985;SDS011;4038;42.612;23.066;2023-04-03T00:37:42;34.40;;;28.67;;
7985;SDS011;4038;42.612;23.066;2023-04-03T00:40:08;31.70;;;28.60;;
7985;SDS011;4038;42.612;23.066;2023-04-03T00:42:35;29.60;;;26.67;;
7985;SDS011;4038;42.612;23.066;2023-04-03T00:47:26;30.33;;;27.43;;
7985;SDS011;4038;42.612;23.066;2023-04-03T00:49:52;29.67;;;27.00;;
7985;SDS011;4038;42.612;23.066;2023-04-03T00:52:19;29.90;;;27.23;;
7985;SDS011;4038;42.612;23.066;2023-04-03T00:54:46;30.00;;;27.40;;
7985;SDS011;4038;42.612;23.066;2023-04-03T00:57:12;27.80;;;25.07;;
7985;SDS011;4038;42.612;23.066;2023-04-03T00:59:38;29.33;;;26.83;;
7985;SDS011;4038;42.612;23.066;2023-04-03T01:02:05;29.70;;;26.83;;
7985;SDS011;4038;42.612;23.066;2023-04-03T01:06:57;30.13;;;27.07;;
7985;SDS011;4038;42.612;23.066;2023-04-03T01:09:23;29.70;;;26.93;;
7985;SDS011;4038;42.612;23.066;2023-04-03T01:11:48;29.27;;;26.70;;
7985;SDS011;4038;42.612;23.066;2023-04-03T01:14:14;28.37;;;25.87;;
7985;SDS011;4038;42.612;23.066;2023-04-03T01:16:39;28.07;;;25.20;;
7985;SDS011;4038;42.612;23.066;2023-04-03T01:19:08;26.67;;;24.17;;
7985;SDS011;4038;42.612;23.066;2023-04-03T01:26:35;29.20;;;26.40;;
7985;SDS011;4038;42.612;23.066;2023-04-03T01:29:00;26.27;;;24.07;;
7985;SDS011;4038;42.612;23.066;2023-04-03T01:34:00;26.03;;;23.97;;
7985;SDS011;4038;42.612;23.066;2023-04-03T01:36:27;27.07;;;24.77;;
7985;SDS011;4038;42.612;23.066;2023-04-03T01:38:53;24.93;;;23.03;;
7985;SDS011;4038;42.612;23.066;2023-04-03T01:41:18;26.23;;;24.03;;
7985;SDS011;4038;42.612;23.066;2023-04-03T01:43:43;27.13;;;24.53;;
7985;SDS011;4038;42.612;23.066;2023-04-03T01:46:09;26.27;;;24.17;;
7985;SDS011;4038;42.612;23.066;2023-04-03T01:48:34;26.07;;;23.97;;
7985;SDS011;4038;42.612;23.066;2023-04-03T01:51:00;25.57;;;23.37;;
7985;SDS011;4038;42.612;23.066;2023-04-03T01:53:25;26.47;;;24.27;;
7985;SDS011;4038;42.612;23.066;2023-04-03T01:55:50;25.10;;;23.10;;
7985;SDS011;4038;42.612;23.066;2023-04-03T01:58:16;25.33;;;23.23;;
7985;SDS011;4038;42.612;23.066;2023-04-03T02:00:41;27.03;;;24.10;;
7985;SDS011;4038;42.612;23.066;2023-04-03T02:03:06;26.10;;;23.90;;
7985;SDS011;4038;42.612;23.066;2023-04-03T02:05:32;27.30;;;24.97;;
7985;SDS011;4038;42.612;23.066;2023-04-03T02:07:57;27.57;;;25.13;;
7985;SDS011;4038;42.612;23.066;2023-04-03T02:10:22;27.57;;;25.03;;
7985;SDS011;4038;42.612;23.066;2023-04-03T02:12:48;25.77;;;23.53;;
7985;SDS011;4038;42.612;23.066;2023-04-03T02:15:13;27.13;;;24.73;;
7985;SDS011;4038;42.612;23.066;2023-04-03T02:17:38;25.93;;;23.73;;
7985;SDS011;4038;42.612;23.066;2023-04-03T02:20:04;27.00;;;24.80;;
7985;SDS011;4038;42.612;23.066;2023-04-03T02:22:29;32.03;;;28.97;;
7985;SDS011;4038;42.612;23.066;2023-04-03T02:24:55;28.00;;;25.60;;
7985;SDS011;4038;42.612;23.066;2023-04-03T02:27:20;29.97;;;27.20;;
7985;SDS011;4038;42.612;23.066;2023-04-03T02:29:45;28.20;;;25.70;;
7985;SDS011;4038;42.612;23.066;2023-04-03T02:32:11;28.20;;;25.90;;
7985;SDS011;4038;42.612;23.066;2023-04-03T02:34:36;26.33;;;24.20;;
7985;SDS011;4038;42.612;23.066;2023-04-03T02:37:01;25.83;;;23.63;;
7985;SDS011;4038;42.612;23.066;2023-04-03T02:39:27;25.50;;;23.50;;
7985;SDS011;4038;42.612;23.066;2023-04-03T02:41:52;24.80;;;22.87;;
7985;SDS011;4038;42.612;23.066;2023-04-03T02:44:18;24.27;;;22.27;;
7985;SDS011;4038;42.612;23.066;2023-04-03T02:46:43;27.00;;;24.47;;
7985;SDS011;4038;42.612;23.066;2023-04-03T02:49:09;26.10;;;23.80;;
7985;SDS011;4038;42.612;23.066;2023-04-03T02:51:34;26.83;;;24.33;;
7985;SDS011;4038;42.612;23.066;2023-04-03T02:53:59;27.17;;;24.80;;
7985;SDS011;4038;42.612;23.066;2023-04-03T02:56:25;27.03;;;24.50;;
7985;SDS011;4038;42.612;23.066;2023-04-03T02:58:51;27.73;;;25.23;;
7985;SDS011;4038;42.612;23.066;2023-04-03T03:01:17;27.53;;;25.10;;
7985;SDS011;4038;42.612;23.066;2023-04-03T03:03:42;26.90;;;24.40;;
7985;SDS011;4038;42.612;23.066;2023-04-03T03:06:09;25.47;;;23.30;;
7985;SDS011;4038;42.612;23.066;2023-04-03T03:08:34;25.03;;;22.90;;
7985;SDS011;4038;42.612;23.066;2023-04-03T03:11:00;25.13;;;23.23;;
7985;SDS011;4038;42.612;23.066;2023-04-03T03:13:26;26.13;;;24.10;;
7985;SDS011;4038;42.612;23.066;2023-04-03T03:15:51;25.03;;;23.23;;
7985;SDS011;4038;42.612;23.066;2023-04-03T03:18:16;24.97;;;22.70;;
7985;SDS011;4038;42.612;23.066;2023-04-03T03:20:41;25.27;;;23.03;;
7985;SDS011;4038;42.612;23.066;2023-04-03T03:23:07;24.63;;;22.63;;
7985;SDS011;4038;42.612;23.066;2023-04-03T03:25:32;25.57;;;23.30;;
7985;SDS011;4038;42.612;23.066;2023-04-03T03:27:57;24.30;;;22.40;;
7985;SDS011;4038;42.612;23.066;2023-04-03T03:30:23;24.93;;;22.70;;
7985;SDS011;4038;42.612;23.066;2023-04-03T03:32:48;25.30;;;23.10;;
7985;SDS011;4038;42.612;23.066;2023-04-03T03:35:13;25.93;;;23.50;;
7985;SDS011;4038;42.612;23.066;2023-04-03T03:37:38;27.27;;;24.87;;
7985;SDS011;4038;42.612;23.066;2023-04-03T03:40:04;23.43;;;21.50;;
7985;SDS011;4038;42.612;23.066;2023-04-03T03:42:30;24.10;;;22.00;;
7985;SDS011;4038;42.612;23.066;2023-04-03T03:44:55;25.97;;;23.93;;
7985;SDS011;4038;42.612;23.066;2023-04-03T03:47:20;24.17;;;22.27;;
7985;SDS011;4038;42.612;23.066;2023-04-03T03:49:45;23.70;;;21.77;;
7985;SDS011;4038;42.612;23.066;2023-04-03T03:52:11;22.30;;;20.40;;
7985;SDS011;4038;42.612;23.066;2023-04-03T03:54:36;24.07;;;22.03;;
7985;SDS011;4038;42.612;23.066;2023-04-03T03:57:02;24.00;;;22.13;;
7985;SDS011;4038;42.612;23.066;2023-04-03T03:59:27;23.97;;;22.07;;
7985;SDS011;4038;42.612;23.066;2023-04-03T04:01:53;22.13;;;20.10;;
7985;SDS011;4038;42.612;23.066;2023-04-03T04:04:18;23.30;;;21.30;;
7985;SDS011;4038;42.612;23.066;2023-04-03T04:06:43;22.77;;;20.77;;
7985;SDS011;4038;42.612;23.066;2023-04-03T04:09:09;23.30;;;21.20;;
7985;SDS011;4038;42.612;23.066;2023-04-03T04:11:34;21.87;;;19.97;;
7985;SDS011;4038;42.612;23.066;2023-04-03T04:14:00;21.93;;;19.93;;
7985;SDS011;4038;42.612;23.066;2023-04-03T04:16:25;22.37;;;20.40;;
7985;SDS011;4038;42.612;23.066;2023-04-03T04:18:50;23.60;;;21.60;;
7985;SDS011;4038;42.612;23.066;2023-04-03T04:21:15;24.67;;;22.47;;
7985;SDS011;4038;42.612;23.066;2023-04-03T04:23:41;24.30;;;22.27;;
7985;SDS011;4038;42.612;23.066;2023-04-03T04:26:06;24.77;;;22.50;;
7985;SDS011;4038;42.612;23.066;2023-04-03T04:28:31;25.50;;;23.40;;
7985;SDS011;4038;42.612;23.066;2023-04-03T04:30:56;26.90;;;24.13;;
7985;SDS011;4038;42.612;23.066;2023-04-03T04:33:21;25.57;;;23.37;;
7985;SDS011;4038;42.612;23.066;2023-04-03T04:35:47;24.77;;;22.77;;
7985;SDS011;4038;42.612;23.066;2023-04-03T04:38:12;26.23;;;23.93;;
7985;SDS011;4038;42.612;23.066;2023-04-03T04:40:37;26.10;;;23.80;;
7985;SDS011;4038;42.612;23.066;2023-04-03T04:43:03;26.47;;;23.57;;
7985;SDS011;4038;42.612;23.066;2023-04-03T04:45:28;23.83;;;21.73;;
7985;SDS011;4038;42.612;23.066;2023-04-03T04:47:55;24.57;;;22.33;;
7985;SDS011;4038;42.612;23.066;2023-04-03T04:50:20;26.00;;;23.90;;
7985;SDS011;4038;42.612;23.066;2023-04-03T04:52:45;25.27;;;22.97;;
7985;SDS011;4038;42.612;23.066;2023-04-03T04:55:11;25.87;;;23.43;;
7985;SDS011;4038;42.612;23.066;2023-04-03T04:57:36;25.60;;;23.30;;
7985;SDS011;4038;42.612;23.066;2023-04-03T05:00:03;24.70;;;22.77;;
7985;SDS011;4038;42.612;23.066;2023-04-03T05:02:29;26.43;;;24.03;;
7985;SDS011;4038;42.612;23.066;2023-04-03T05:04:55;27.07;;;24.63;;
7985;SDS011;4038;42.612;23.066;2023-04-03T05:07:20;27.17;;;24.77;;
7985;SDS011;4038;42.612;23.066;2023-04-03T05:09:45;25.77;;;23.77;;
7985;SDS011;4038;42.612;23.066;2023-04-03T05:12:11;26.27;;;24.07;;
7985;SDS011;4038;42.612;23.066;2023-04-03T05:14:36;25.50;;;23.57;;
7985;SDS011;4038;42.612;23.066;2023-04-03T05:17:01;26.47;;;23.87;;
7985;SDS011;4038;42.612;23.066;2023-04-03T05:19:27;26.20;;;24.00;;
7985;SDS011;4038;42.612;23.066;2023-04-03T05:21:52;27.43;;;25.33;;
7985;SDS011;4038;42.612;23.066;2023-04-03T05:24:17;31.93;;;28.80;;
7985;SDS011;4038;42.612;23.066;2023-04-03T05:26:42;29.17;;;26.40;;
7985;SDS011;4038;42.612;23.066;2023-04-03T05:29:08;28.50;;;25.90;;
7985;SDS011;4038;42.612;23.066;2023-04-03T05:31:33;30.07;;;27.37;;
7985;SDS011;4038;42.612;23.066;2023-04-03T05:33:59;30.20;;;27.10;;
7985;SDS011;4038;42.612;23.066;2023-04-03T05:36:24;32.97;;;29.30;;
7985;SDS011;4038;42.612;23.066;2023-04-03T05:38:50;27.10;;;24.63;;
7985;SDS011;4038;42.612;23.066;2023-04-03T05:41:16;28.70;;;25.90;;
7985;SDS011;4038;42.612;23.066;2023-04-03T05:43:41;28.30;;;25.70;;
7985;SDS011;4038;42.612;23.066;2023-04-03T05:46:09;30.80;;;27.77;;
7985;SDS011;4038;42.612;23.066;2023-04-03T05:48:34;30.73;;;27.93;;
7985;SDS011;4038;42.612;23.066;2023-04-03T05:51:00;32.03;;;28.90;;
7985;SDS011;4038;42.612;23.066;2023-04-03T05:53:29;35.50;;;29.50;;
7985;SDS011;4038;42.612;23.066;2023-04-03T05:55:55;36.27;;;29.73;;
7985;SDS011;4038;42.612;23.066;2023-04-03T05:58:21;41.30;;;30.90;;
7985;SDS011;4038;42.612;23.066;2023-04-03T06:00:46;39.13;;;31.10;;
7985;SDS011;4038;42.612;23.066;2023-04-03T06:03:11;38.47;;;29.73;;
7985;SDS011;4038;42.612;23.066;2023-04-03T06:05:37;34.57;;;29.73;;
7985;SDS011;4038;42.612;23.066;2023-04-03T06:08:02;34.30;;;29.27;;
7985;SDS011;4038;42.612;23.066;2023-04-03T06:10:28;35.23;;;29.23;;
7985;SDS011;4038;42.612;23.066;2023-04-03T06:12:53;36.97;;;29.97;;
7985;SDS011;4038;42.612;23.066;2023-04-03T06:15:19;32.47;;;29.13;;
7985;SDS011;4038;42.612;23.066;2023-04-03T06:17:45;33.80;;;30.43;;
7985;SDS011;4038;42.612;23.066;2023-04-03T06:20:10;32.30;;;29.20;;
7985;SDS011;4038;42.612;23.066;2023-04-03T06:22:36;32.50;;;29.23;;
7985;SDS011;4038;42.612;23.066;2023-04-03T06:25:01;33.63;;;29.40;;
7985;SDS011;4038;42.612;23.066;2023-04-03T06:27:27;31.60;;;28.57;;
7985;SDS011;4038;42.612;23.066;2023-04-03T06:29:52;32.73;;;29.33;;
7985;SDS011;4038;42.612;23.066;2023-04-03T06:32:17;36.43;;;32.90;;
7985;SDS011;4038;42.612;23.066;2023-04-03T06:34:43;35.40;;;31.83;;
7985;SDS011;4038;42.612;23.066;2023-04-03T06:37:15;38.47;;;32.17;;
7985;SDS011;4038;42.612;23.066;2023-04-03T06:39:41;35.93;;;31.83;;
7985;SDS011;4038;42.612;23.066;2023-04-03T06:42:06;33.53;;;30.60;;
7985;SDS011;4038;42.612;23.066;2023-04-03T06:44:32;42.80;;;38.77;;
7985;SDS011;4038;42.612;23.066;2023-04-03T06:46:58;41.07;;;37.37;;
7985;SDS011;4038;42.612;23.066;2023-04-03T06:49:24;39.13;;;35.43;;
7985;SDS011;4038;42.612;23.066;2023-04-03T06:51:50;36.73;;;33.43;;
7985;SDS011;4038;42.612;23.066;2023-04-03T06:54:15;36.97;;;33.57;;
7985;SDS011;4038;42.612;23.066;2023-04-03T06:56:41;36.77;;;33.40;;
7985;SDS011;4038;42.612;23.066;2023-04-03T06:59:06;37.03;;;33.93;;
7985;SDS011;4038;42.612;23.066;2023-04-03T07:01:31;35.83;;;32.57;;
7985;SDS011;4038;42.612;23.066;2023-04-03T07:03:57;34.57;;;31.37;;
7985;SDS011;4038;42.612;23.066;2023-04-03T07:06:22;32.37;;;29.23;;
7985;SDS011;4038;42.612;23.066;2023-04-03T07:08:47;33.55;;;30.30;;
7985;SDS011;4038;42.612;23.066;2023-04-03T07:11:16;32.33;;;29.52;;
7985;SDS011;4038;42.612;23.066;2023-04-03T07:13:41;31.13;;;28.35;;
7985;SDS011;4038;42.612;23.066;2023-04-03T07:16:07;28.55;;;26.23;;
7985;SDS011;4038;42.612;23.066;2023-04-03T07:18:33;30.55;;;27.80;;
7985;SDS011;4038;42.612;23.066;2023-04-03T07:20:58;26.13;;;24.08;;
7985;SDS011;4038;42.612;23.066;2023-04-03T07:23:24;25.67;;;23.52;;
7985;SDS011;4038;42.612;23.066;2023-04-03T07:25:50;24.60;;;22.70;;
7985;SDS011;4038;42.612;23.066;2023-04-03T07:28:16;25.63;;;23.75;;
7985;SDS011;4038;42.612;23.066;2023-04-03T07:31:03;26.13;;;24.23;;
7985;SDS011;4038;42.612;23.066;2023-04-03T07:33:27;22.83;;;21.30;;
7985;SDS011;4038;42.612;23.066;2023-04-03T07:35:52;21.33;;;19.92;;
7985;SDS011;4038;42.612;23.066;2023-04-03T07:38:18;21.40;;;19.88;;
7985;SDS011;4038;42.612;23.066;2023-04-03T07:40:46;21.65;;;20.30;;
7985;SDS011;4038;42.612;23.066;2023-04-03T07:43:12;21.55;;;20.25;;
7985;SDS011;4038;42.612;23.066;2023-04-03T07:45:37;21.60;;;20.30;;
7985;SDS011;4038;42.612;23.066;2023-04-03T07:48:03;21.95;;;20.55;;
7985;SDS011;4038;42.612;23.066;2023-04-03T07:50:28;21.33;;;20.02;;
7985;SDS011;4038;42.612;23.066;2023-04-03T07:52:55;21.52;;;20.10;;
7985;SDS011;4038;42.612;23.066;2023-04-03T07:55:22;21.08;;;19.77;;
7985;SDS011;4038;42.612;23.066;2023-04-03T07:57:47;20.20;;;18.85;;
7985;SDS011;4038;42.612;23.066;2023-04-03T08:00:13;20.95;;;19.65;;
7985;SDS011;4038;42.612;23.066;2023-04-03T08:02:38;20.83;;;19.52;;
7985;SDS011;4038;42.612;23.066;2023-04-03T08:05:03;21.38;;;19.98;;
7985;SDS011;4038;42.612;23.066;2023-04-03T08:07:29;20.77;;;19.58;;
7985;SDS011;4038;42.612;23.066;2023-04-03T08:09:54;21.20;;;19.90;;
7985;SDS011;4038;42.612;23.066;2023-04-03T08:12:20;21.13;;;19.83;;
7985;SDS011;4038;42.612;23.066;2023-04-03T08:14:45;21.40;;;20.10;;
7985;SDS011;4038;42.612;23.066;2023-04-03T08:17:10;20.70;;;19.40;;
7985;SDS011;4038;42.612;23.066;2023-04-03T08:19:39;20.10;;;18.80;;
7985;SDS011;4038;42.612;23.066;2023-04-03T08:22:04;20.92;;;19.63;;
7985;SDS011;4038;42.612;23.066;2023-04-03T08:24:30;21.27;;;19.98;;
7985;SDS011;4038;42.612;23.066;2023-04-03T08:26:56;21.73;;;20.15;;
7985;SDS011;4038;42.612;23.066;2023-04-03T08:29:21;20.02;;;18.67;;
7985;SDS011;4038;42.612;23.066;2023-04-03T08:31:46;19.40;;;18.20;;
7985;SDS011;4038;42.612;23.066;2023-04-03T08:34:12;29.02;;;19.73;;
7985;SDS011;4038;42.612;23.066;2023-04-03T08:36:38;22.05;;;20.67;;
7985;SDS011;4038;42.612;23.066;2023-04-03T08:39:03;20.95;;;19.65;;
7985;SDS011;4038;42.612;23.066;2023-04-03T08:41:33;20.17;;;18.92;;
7985;SDS011;4038;42.612;23.066;2023-04-03T08:44:09;19.67;;;18.48;;
7985;SDS011;4038;42.612;23.066;2023-04-03T08:46:40;23.02;;;21.15;;
7985;SDS011;4038;42.612;23.066;2023-04-03T08:49:22;23.95;;;22.15;;
7985;SDS011;4038;42.612;23.066;2023-04-03T08:51:49;20.42;;;19.10;;
7985;SDS011;4038;42.612;23.066;2023-04-03T08:54:21;19.98;;;18.67;;
7985;SDS011;4038;42.612;23.066;2023-04-03T08:56:49;20.67;;;19.48;;
7985;SDS011;4038;42.612;23.066;2023-04-03T08:59:17;19.70;;;18.50;;
7985;SDS011;4038;42.612;23.066;2023-04-03T09:01:44;20.70;;;19.30;;
7985;SDS011;4038;42.612;23.066;2023-04-03T09:04:14;20.60;;;19.20;;
7985;SDS011;4038;42.612;23.066;2023-04-03T09:06:41;20.33;;;19.02;;
7985;SDS011;4038;42.612;23.066;2023-04-03T09:17:03;21.00;;;19.70;;
7985;SDS011;4038;42.612;23.066;2023-04-03T09:21:55;21.25;;;19.95;;
7985;SDS011;4038;42.612;23.066;2023-04-03T09:24:21;21.27;;;19.98;;
7985;SDS011;4038;42.612;23.066;2023-04-03T09:27:01;21.52;;;19.95;;
7985;SDS011;4038;42.612;23.066;2023-04-03T09:29:28;20.50;;;19.20;;
7985;SDS011;4038;42.612;23.066;2023-04-03T09:31:56;21.08;;;19.67;;
7985;SDS011;4038;42.612;23.066;2023-04-03T09:34:23;22.48;;;21.02;;
7985;SDS011;4038;42.612;23.066;2023-04-03T09:36:52;20.73;;;19.50;;
7985;SDS011;4038;42.612;23.066;2023-04-03T09:41:56;20.92;;;19.63;;
7985;SDS011;4038;42.612;23.066;2023-04-03T09:44:23;21.92;;;20.52;;
7985;SDS011;4038;42.612;23.066;2023-04-03T09:46:49;22.38;;;21.08;;
7985;SDS011;4038;42.612;23.066;2023-04-03T09:49:14;22.55;;;21.00;;
7985;SDS011;4038;42.612;23.066;2023-04-03T09:51:40;21.27;;;19.88;;
7985;SDS011;4038;42.612;23.066;2023-04-03T09:54:25;20.98;;;19.67;;
7985;SDS011;4038;42.612;23.066;2023-04-03T09:56:51;22.40;;;21.00;;
7985;SDS011;4038;42.612;23.066;2023-04-03T09:59:16;21.67;;;20.17;;
7985;SDS011;4038;42.612;23.066;2023-04-03T10:01:42;21.92;;;20.52;;
7985;SDS011;4038;42.612;23.066;2023-04-03T10:06:35;22.25;;;20.80;;
7985;SDS011;4038;42.612;23.066;2023-04-03T10:09:02;22.30;;;20.40;;
7985;SDS011;4038;42.612;23.066;2023-04-03T10:11:29;22.98;;;21.27;;
7985;SDS011;4038;42.612;23.066;2023-04-03T10:13:56;22.23;;;20.73;;
7985;SDS011;4038;42.612;23.066;2023-04-03T10:16:41;22.40;;;21.00;;
7985;SDS011;4038;42.612;23.066;2023-04-03T10:24:13;21.02;;;19.73;;
7985;SDS011;4038;42.612;23.066;2023-04-03T10:34:35;23.75;;;22.00;;
7985;SDS011;4038;42.612;23.066;2023-04-03T10:39:46;23.17;;;21.48;;
7985;SDS011;4038;42.612;23.066;2023-04-03T10:42:18;22.48;;;21.00;;
7985;SDS011;4038;42.612;23.066;2023-04-03T10:47:27;23.40;;;21.48;;
7985;SDS011;4038;42.612;23.066;2023-04-03T10:50:12;23.52;;;21.92;;
7985;SDS011;4038;42.612;23.066;2023-04-03T10:55:31;22.10;;;20.50;;
7985;SDS011;4038;42.612;23.066;2023-04-03T10:57:59;21.73;;;20.23;;
7985;SDS011;4038;42.612;23.066;2023-04-03T11:00:41;22.83;;;21.02;;
7985;SDS011;4038;42.612;23.066;2023-04-03T11:03:14;21.88;;;20.48;;
7985;SDS011;4038;42.612;23.066;2023-04-03T11:05:42;21.98;;;20.58;;
7985;SDS011;4038;42.612;23.066;2023-04-03T11:08:13;21.48;;;20.02;;
7985;SDS011;4038;42.612;23.066;2023-04-03T11:10:41;20.63;;;19.33;;
7985;SDS011;4038;42.612;23.066;2023-04-03T11:13:18;20.70;;;19.40;;
7985;SDS011;4038;42.612;23.066;2023-04-03T11:15:44;21.58;;;20.08;;
7985;SDS011;4038;42.612;23.066;2023-04-03T11:18:46;20.63;;;19.33;;
7985;SDS011;4038;42.612;23.066;2023-04-03T11:21:08;20.65;;;19.35;;
7985;SDS011;4038;42.612;23.066;2023-04-03T11:23:35;20.30;;;19.00;;
7985;SDS011;4038;42.612;23.066;2023-04-03T11:26:11;20.42;;;19.13;;
7985;SDS011;4038;42.612;23.066;2023-04-03T11:28:37;20.77;;;19.38;;
7985;SDS011;4038;42.612;23.066;2023-04-03T11:38:43;20.77;;;19.38;;
7985;SDS011;4038;42.612;23.066;2023-04-03T11:41:10;21.13;;;19.65;;
7985;SDS011;4038;42.612;23.066;2023-04-03T11:43:40;21.10;;;19.80;;
7985;SDS011;4038;42.612;23.066;2023-04-03T11:46:06;21.08;;;19.73;;
7985;SDS011;4038;42.612;23.066;2023-04-03T11:51:44;20.63;;;19.33;;
7985;SDS011;4038;42.612;23.066;2023-04-03T11:53:46;20.48;;;19.17;;
7985;SDS011;4038;42.612;23.066;2023-04-03T12:04:14;23.50;;;22.00;;
7985;SDS011;4038;42.612;23.066;2023-04-03T12:11:49;21.02;;;19.52;;
7985;SDS011;4038;42.612;23.066;2023-04-03T12:14:15;21.42;;;20.02;;
7985;SDS011;4038;42.612;23.066;2023-04-03T12:24:25;22.13;;;20.80;;
7985;SDS011;4038;42.612;23.066;2023-04-03T12:37:08;21.70;;;20.30;;
7985;SDS011;4038;42.612;23.066;2023-04-03T12:42:14;22.95;;;21.30;;
7985;SDS011;4038;42.612;23.066;2023-04-03T12:44:48;22.42;;;20.98;;
7985;SDS011;4038;42.612;23.066;2023-04-03T12:47:25;21.70;;;20.40;;
7985;SDS011;4038;42.612;23.066;2023-04-03T12:49:52;23.02;;;21.52;;
7985;SDS011;4038;42.612;23.066;2023-04-03T12:52:40;22.02;;;20.52;;
7985;SDS011;4038;42.612;23.066;2023-04-03T12:55:07;21.85;;;20.45;;
7985;SDS011;4038;42.612;23.066;2023-04-03T12:57:32;22.30;;;20.90;;
7985;SDS011;4038;42.612;23.066;2023-04-03T12:59:58;22.90;;;21.40;;
7985;SDS011;4038;42.612;23.066;2023-04-03T13:02:32;23.30;;;21.75;;
7985;SDS011;4038;42.612;23.066;2023-04-03T13:05:06;22.85;;;21.45;;
7985;SDS011;4038;42.612;23.066;2023-04-03T13:07:32;22.40;;;21.00;;
7985;SDS011;4038;42.612;23.066;2023-04-03T13:09:59;23.20;;;21.75;;
7985;SDS011;4038;42.612;23.066;2023-04-03T13:12:25;21.27;;;19.88;;
7985;SDS011;4038;42.612;23.066;2023-04-03T13:14:54;22.07;;;20.67;;
7985;SDS011;4038;42.612;23.066;2023-04-03T13:17:20;21.75;;;20.35;;
7985;SDS011;4038;42.612;23.066;2023-04-03T13:19:46;23.88;;;22.48;;
7985;SDS011;4038;42.612;23.066;2023-04-03T13:22:32;23.63;;;22.23;;
7985;SDS011;4038;42.612;23.066;2023-04-03T13:24:59;24.50;;;23.10;;
7985;SDS011;4038;42.612;23.066;2023-04-03T13:27:26;22.50;;;21.02;;
7985;SDS011;4038;42.612;23.066;2023-04-03T13:29:53;22.00;;;20.60;;
7985;SDS011;4038;42.612;23.066;2023-04-03T13:32:23;22.27;;;20.77;;
7985;SDS011;4038;42.612;23.066;2023-04-03T13:34:49;22.17;;;20.77;;
7985;SDS011;4038;42.612;23.066;2023-04-03T13:37:25;22.13;;;20.73;;
7985;SDS011;4038;42.612;23.066;2023-04-03T13:42:45;23.00;;;21.40;;
7985;SDS011;4038;42.612;23.066;2023-04-03T13:45:19;22.55;;;21.05;;
7985;SDS011;4038;42.612;23.066;2023-04-03T13:47:45;22.50;;;21.10;;
7985;SDS011;4038;42.612;23.066;2023-04-03T13:52:40;20.30;;;18.83;;
7985;SDS011;4038;42.612;23.066;2023-04-03T13:55:25;19.60;;;18.40;;
7985;SDS011;4038;42.612;23.066;2023-04-03T13:57:58;23.73;;;22.33;;
7985;SDS011;4038;42.612;23.066;2023-04-03T14:01:08;20.53;;;19.13;;
7985;SDS011;4038;42.612;23.066;2023-04-03T14:03:19;21.33;;;19.93;;
7985;SDS011;4038;42.612;23.066;2023-04-03T14:05:45;22.33;;;20.93;;
7985;SDS011;4038;42.612;23.066;2023-04-03T14:08:10;21.33;;;20.00;;
7985;SDS011;4038;42.612;23.066;2023-04-03T14:10:36;21.77;;;20.37;;
7985;SDS011;4038;42.612;23.066;2023-04-03T14:13:01;22.70;;;21.20;;
7985;SDS011;4038;42.612;23.066;2023-04-03T14:15:28;20.90;;;19.60;;
7985;SDS011;4038;42.612;23.066;2023-04-03T14:17:53;21.57;;;20.27;;
7985;SDS011;4038;42.612;23.066;2023-04-03T14:20:21;22.03;;;20.67;;
7985;SDS011;4038;42.612;23.066;2023-04-03T14:22:46;21.20;;;19.90;;
7985;SDS011;4038;42.612;23.066;2023-04-03T14:25:13;20.43;;;19.13;;
7985;SDS011;4038;42.612;23.066;2023-04-03T14:27:40;22.90;;;21.50;;
7985;SDS011;4038;42.612;23.066;2023-04-03T14:30:07;21.23;;;19.93;;
7985;SDS011;4038;42.612;23.066;2023-04-03T14:32:33;21.40;;;20.00;;
7985;SDS011;4038;42.612;23.066;2023-04-03T14:34:58;21.53;;;20.23;;
7985;SDS011;4038;42.612;23.066;2023-04-03T14:37:25;20.37;;;19.07;;
7985;SDS011;4038;42.612;23.066;2023-04-03T14:39:53;21.57;;;20.07;;
7985;SDS011;4038;42.612;23.066;2023-04-03T14:42:23;21.20;;;19.90;;
7985;SDS011;4038;42.612;23.066;2023-04-03T14:44:48;20.30;;;19.00;;
7985;SDS011;4038;42.612;23.066;2023-04-03T14:47:21;20.50;;;19.10;;
7985;SDS011;4038;42.612;23.066;2023-04-03T14:49:47;21.20;;;19.80;;
7985;SDS011;4038;42.612;23.066;2023-04-03T14:52:20;21.33;;;20.03;;
7985;SDS011;4038;42.612;23.066;2023-04-03T14:54:46;21.17;;;19.87;;
7985;SDS011;4038;42.612;23.066;2023-04-03T14:57:12;20.20;;;18.90;;
7985;SDS011;4038;42.612;23.066;2023-04-03T14:59:39;20.90;;;19.60;;
7985;SDS011;4038;42.612;23.066;2023-04-03T15:02:15;21.00;;;19.80;;
7985;SDS011;4038;42.612;23.066;2023-04-03T15:04:46;20.97;;;19.67;;
7985;SDS011;4038;42.612;23.066;2023-04-03T15:07:11;20.03;;;18.73;;
7985;SDS011;4038;42.612;23.066;2023-04-03T15:09:36;20.80;;;19.50;;
7985;SDS011;4038;42.612;23.066;2023-04-03T15:12:02;20.80;;;19.50;;
7985;SDS011;4038;42.612;23.066;2023-04-03T15:14:27;20.57;;;19.30;;
7985;SDS011;4038;42.612;23.066;2023-04-03T15:16:52;20.83;;;19.53;;
7985;SDS011;4038;42.612;23.066;2023-04-03T15:19:18;20.10;;;18.80;;
7985;SDS011;4038;42.612;23.066;2023-04-03T15:21:43;20.90;;;19.50;;
7985;SDS011;4038;42.612;23.066;2023-04-03T15:24:08;20.90;;;19.60;;
7985;SDS011;4038;42.612;23.066;2023-04-03T15:26:34;21.17;;;19.77;;
7985;SDS011;4038;42.612;23.066;2023-04-03T15:28:59;19.47;;;18.27;;
7985;SDS011;4038;42.612;23.066;2023-04-03T15:31:24;20.23;;;18.93;;
7985;SDS011;4038;42.612;23.066;2023-04-03T15:33:50;20.30;;;19.00;;
7985;SDS011;4038;42.612;23.066;2023-04-03T15:36:15;20.80;;;19.40;;
7985;SDS011;4038;42.612;23.066;2023-04-03T15:38:40;20.97;;;19.67;;
7985;SDS011;4038;42.612;23.066;2023-04-03T15:41:06;20.43;;;19.13;;
7985;SDS011;4038;42.612;23.066;2023-04-03T15:43:31;20.70;;;19.40;;
7985;SDS011;4038;42.612;23.066;2023-04-03T15:45:58;19.97;;;18.70;;
7985;SDS011;4038;42.612;23.066;2023-04-03T15:48:25;20.20;;;19.00;;
7985;SDS011;4038;42.612;23.066;2023-04-03T15:50:50;19.47;;;18.27;;
7985;SDS011;4038;42.612;23.066;2023-04-03T15:53:16;19.43;;;18.13;;
7985;SDS011;4038;42.612;23.066;2023-04-03T15:55:41;19.93;;;18.70;;
7985;SDS011;4038;42.612;23.066;2023-04-03T15:58:07;20.50;;;19.13;;
7985;SDS011;4038;42.612;23.066;2023-04-03T16:00:32;19.50;;;18.20;;
7985;SDS011;4038;42.612;23.066;2023-04-03T16:02:59;20.53;;;19.00;;
7985;SDS011;4038;42.612;23.066;2023-04-03T16:05:25;20.13;;;18.73;;
7985;SDS011;4038;42.612;23.066;2023-04-03T16:07:50;20.77;;;19.27;;
7985;SDS011;4038;42.612;23.066;2023-04-03T16:10:16;20.07;;;18.77;;